sensor_id;sensor_type;location;lat;lon;timestamp;pressure;altitude;pressure_sealevel;temperature;humidity
54816;BME280;40715;55.752;37.884;2022-07-29T00:01:00;99027.50;;;22.98;53.71
54816;BME280;40715;55.752;37.884;2022-07-29T00:03:27;99027.66;;;22.97;53.49
54816;BME280;40715;55.752;37.884;2022-07-29T00:05:55;99036.66;;;22.96;52.90
54816;BME280;40715;55.752;37.884;2022-07-29T00:08:22;99027.03;;;22.93;52.57
54816;BME280;40715;55.752;37.884;2022-07-29T00:10:49;99032.66;;;22.90;52.74
54816;BME280;40715;55.752;37.884;2022-07-29T00:13:16;99041.25;;;22.84;52.51
54816;BME280;40715;55.752;37.884;2022-07-29T00:15:43;99044.31;;;22.79;52.53
54816;BME280;40715;55.752;37.884;2022-07-29T00:18:10;99037.13;;;22.68;52.96
54816;BME280;40715;55.752;37.884;2022-07-29T00:20:37;99041.91;;;22.65;53.05
54816;BME280;40715;55.752;37.884;2022-07-29T00:23:04;99047.75;;;22.58;53.04
54816;BME280;40715;55.752;37.884;2022-07-29T00:25:31;99056.31;;;22.52;52.93
54816;BME280;40715;55.752;37.884;2022-07-29T00:27:58;99045.47;;;22.54;52.89
54816;BME280;40715;55.752;37.884;2022-07-29T00:30:25;99048.84;;;22.56;52.44
54816;BME280;40715;55.752;37.884;2022-07-29T00:32:52;99046.44;;;22.53;52.30
54816;BME280;40715;55.752;37.884;2022-07-29T00:35:19;99049.63;;;22.47;52.44
54816;BME280;40715;55.752;37.884;2022-07-29T00:38:04;99056.22;;;22.43;52.52
54816;BME280;40715;55.752;37.884;2022-07-29T00:40:31;99047.56;;;22.39;52.33
54816;BME280;40715;55.752;37.884;2022-07-29T00:42:58;99059.72;;;22.32;52.42
54816;BME280;40715;55.752;37.884;2022-07-29T00:47:52;99059.63;;;22.22;52.50
54816;BME280;40715;55.752;37.884;2022-07-29T00:50:19;99060.72;;;22.08;52.85
54816;BME280;40715;55.752;37.884;2022-07-29T00:52:46;99053.88;;;21.93;53.06
54816;BME280;40715;55.752;37.884;2022-07-29T00:55:15;99056.78;;;21.78;53.24
54816;BME280;40715;55.752;37.884;2022-07-29T00:57:43;99061.50;;;21.63;53.41
54816;BME280;40715;55.752;37.884;2022-07-29T01:00:17;99069.84;;;21.47;53.77
54816;BME280;40715;55.752;37.884;2022-07-29T01:02:46;99067.34;;;21.33;53.97
54816;BME280;40715;55.752;37.884;2022-07-29T01:05:18;99065.81;;;21.17;54.44
54816;BME280;40715;55.752;37.884;2022-07-29T01:07:48;99070.16;;;21.07;54.71
54816;BME280;40715;55.752;37.884;2022-07-29T01:10:16;99080.72;;;20.97;54.89
54816;BME280;40715;55.752;37.884;2022-07-29T01:12:44;99064.19;;;20.79;55.11
54816;BME280;40715;55.752;37.884;2022-07-29T01:15:13;99080.16;;;20.81;55.38
54816;BME280;40715;55.752;37.884;2022-07-29T01:26:27;99081.81;;;20.45;56.25
54816;BME280;40715;55.752;37.884;2022-07-29T01:32:01;99080.66;;;20.36;56.66
54816;BME280;40715;55.752;37.884;2022-07-29T01:34:54;99076.09;;;20.25;56.56
54816;BME280;40715;55.752;37.884;2022-07-29T01:39:59;99078.66;;;20.27;56.51
54816;BME280;40715;55.752;37.884;2022-07-29T01:42:46;99088.25;;;20.29;56.59
54816;BME280;40715;55.752;37.884;2022-07-29T01:45:15;99081.84;;;20.32;56.56
54816;BME280;40715;55.752;37.884;2022-07-29T01:47:56;99087.72;;;20.37;56.74
54816;BME280;40715;55.752;37.884;2022-07-29T01:51:02;99088.25;;;20.42;56.48
54816;BME280;40715;55.752;37.884;2022-07-29T01:53:34;99083.00;;;20.41;56.40
54816;BME280;40715;55.752;37.884;2022-07-29T01:56:03;99085.13;;;20.48;56.36
54816;BME280;40715;55.752;37.884;2022-07-29T01:58:32;99076.16;;;20.49;56.03
54816;BME280;40715;55.752;37.884;2022-07-29T02:01:00;99080.72;;;20.47;56.02
54816;BME280;40715;55.752;37.884;2022-07-29T02:03:30;99048.03;;;20.31;56.03
54816;BME280;40715;55.752;37.884;2022-07-29T02:06:01;99073.59;;;20.48;56.18
54816;BME280;40715;55.752;37.884;2022-07-29T02:08:32;99067.00;;;20.52;56.04
54816;BME280;40715;55.752;37.884;2022-07-29T02:11:00;99082.06;;;20.66;55.78
54816;BME280;40715;55.752;37.884;2022-07-29T02:13:31;99074.63;;;20.71;55.54
54816;BME280;40715;55.752;37.884;2022-07-29T02:16:02;99093.81;;;20.89;55.14
54816;BME280;40715;55.752;37.884;2022-07-29T02:18:33;99083.56;;;21.07;55.05
54816;BME280;40715;55.752;37.884;2022-07-29T02:21:03;99090.47;;;21.23;54.77
54816;BME280;40715;55.752;37.884;2022-07-29T02:23:31;99089.63;;;21.33;54.35
54816;BME280;40715;55.752;37.884;2022-07-29T02:26:18;99090.84;;;21.53;54.06
54816;BME280;40715;55.752;37.884;2022-07-29T02:28:47;99084.91;;;21.72;53.56
54816;BME280;40715;55.752;37.884;2022-07-29T02:31:16;99099.97;;;21.98;52.87
54816;BME280;40715;55.752;37.884;2022-07-29T02:33:46;99095.72;;;22.18;52.50
54816;BME280;40715;55.752;37.884;2022-07-29T02:36:14;99081.84;;;22.35;51.67
54816;BME280;40715;55.752;37.884;2022-07-29T02:38:43;99102.44;;;22.69;51.25
54816;BME280;40715;55.752;37.884;2022-07-29T02:41:27;99071.75;;;22.83;50.58
54816;BME280;40715;55.752;37.884;2022-07-29T02:44:02;99099.66;;;23.14;50.00
54816;BME280;40715;55.752;37.884;2022-07-29T02:46:35;99111.19;;;23.37;49.66
54816;BME280;40715;55.752;37.884;2022-07-29T02:49:10;99108.06;;;23.53;48.72
54816;BME280;40715;55.752;37.884;2022-07-29T02:51:45;99107.47;;;23.71;48.82
54816;BME280;40715;55.752;37.884;2022-07-29T02:54:29;99095.69;;;23.83;48.10
54816;BME280;40715;55.752;37.884;2022-07-29T02:57:01;99108.75;;;24.09;47.47
54816;BME280;40715;55.752;37.884;2022-07-29T02:59:32;99114.22;;;24.28;47.06
54816;BME280;40715;55.752;37.884;2022-07-29T03:02:02;99108.19;;;24.46;46.45
54816;BME280;40715;55.752;37.884;2022-07-29T03:04:32;99107.56;;;24.63;46.12
54816;BME280;40715;55.752;37.884;2022-07-29T03:07:01;99109.88;;;24.78;45.23
54816;BME280;40715;55.752;37.884;2022-07-29T03:09:29;99111.19;;;24.93;45.27
54816;BME280;40715;55.752;37.884;2022-07-29T03:11:57;99108.69;;;25.11;44.61
54816;BME280;40715;55.752;37.884;2022-07-29T03:14:24;99111.28;;;25.32;43.86
54816;BME280;40715;55.752;37.884;2022-07-29T03:16:52;99102.78;;;25.47;43.58
54816;BME280;40715;55.752;37.884;2022-07-29T03:19:19;99105.72;;;25.63;43.02
54816;BME280;40715;55.752;37.884;2022-07-29T03:21:47;99110.25;;;25.82;42.35
54816;BME280;40715;55.752;37.884;2022-07-29T03:24:32;99105.94;;;26.09;41.83
54816;BME280;40715;55.752;37.884;2022-07-29T03:26:59;99096.09;;;26.28;41.44
54816;BME280;40715;55.752;37.884;2022-07-29T03:29:27;99111.72;;;26.62;40.50
54816;BME280;40715;55.752;37.884;2022-07-29T03:32:00;99115.44;;;26.89;40.24
54816;BME280;40715;55.752;37.884;2022-07-29T03:34:28;99111.53;;;27.19;39.57
54816;BME280;40715;55.752;37.884;2022-07-29T03:36:55;99113.34;;;27.46;38.99
54816;BME280;40715;55.752;37.884;2022-07-29T03:39:24;99111.38;;;27.75;38.06
54816;BME280;40715;55.752;37.884;2022-07-29T03:41:55;99114.06;;;28.11;37.46
54816;BME280;40715;55.752;37.884;2022-07-29T03:44:23;99118.94;;;28.41;36.90
54816;BME280;40715;55.752;37.884;2022-07-29T03:46:53;99122.88;;;28.73;36.29
54816;BME280;40715;55.752;37.884;2022-07-29T03:49:24;99120.44;;;29.05;35.61
54816;BME280;40715;55.752;37.884;2022-07-29T03:51:52;99128.16;;;29.42;34.83
54816;BME280;40715;55.752;37.884;2022-07-29T03:54:19;99121.38;;;29.71;34.61
54816;BME280;40715;55.752;37.884;2022-07-29T03:56:48;99126.41;;;30.24;33.29
54816;BME280;40715;55.752;37.884;2022-07-29T03:59:17;99128.09;;;30.89;32.60
54816;BME280;40715;55.752;37.884;2022-07-29T04:01:46;99131.59;;;31.61;31.41
54816;BME280;40715;55.752;37.884;2022-07-29T04:04:14;99138.44;;;32.48;29.79
54816;BME280;40715;55.752;37.884;2022-07-29T04:06:43;99137.78;;;33.42;28.62
54816;BME280;40715;55.752;37.884;2022-07-29T04:09:11;99139.31;;;34.51;27.67
54816;BME280;40715;55.752;37.884;2022-07-29T04:11:39;99146.06;;;35.59;26.36
54816;BME280;40715;55.752;37.884;2022-07-29T04:14:25;99119.69;;;36.45;25.22
54816;BME280;40715;55.752;37.884;2022-07-29T04:16:52;99152.22;;;37.45;24.04
54816;BME280;40715;55.752;37.884;2022-07-29T04:19:19;99147.22;;;38.18;23.28
54816;BME280;40715;55.752;37.884;2022-07-29T04:21:46;99151.22;;;38.84;22.10
54816;BME280;40715;55.752;37.884;2022-07-29T04:24:13;99146.38;;;39.47;21.75
54816;BME280;40715;55.752;37.884;2022-07-29T04:26:41;99144.25;;;40.03;20.70
54816;BME280;40715;55.752;37.884;2022-07-29T04:29:08;99153.50;;;40.57;20.00
54816;BME280;40715;55.752;37.884;2022-07-29T04:31:35;99128.09;;;40.95;19.19
54816;BME280;40715;55.752;37.884;2022-07-29T04:34:02;99157.41;;;41.71;18.63
54816;BME280;40715;55.752;37.884;2022-07-29T04:36:29;99161.41;;;42.26;17.56
54816;BME280;40715;55.752;37.884;2022-07-29T04:38:56;99155.22;;;42.80;17.23
54816;BME280;40715;55.752;37.884;2022-07-29T04:41:23;99165.34;;;43.36;16.72
54816;BME280;40715;55.752;37.884;2022-07-29T04:43:51;99167.72;;;43.82;16.00
54816;BME280;40715;55.752;37.884;2022-07-29T04:46:18;99145.13;;;44.00;15.81
54816;BME280;40715;55.752;37.884;2022-07-29T04:48:46;99160.56;;;44.66;15.17
54816;BME280;40715;55.752;37.884;2022-07-29T04:51:14;99169.09;;;45.12;14.66
54816;BME280;40715;55.752;37.884;2022-07-29T04:53:41;99176.72;;;45.53;14.06
54816;BME280;40715;55.752;37.884;2022-07-29T04:56:08;99185.13;;;45.84;13.87
54816;BME280;40715;55.752;37.884;2022-07-29T04:58:35;99177.31;;;46.22;13.55
54816;BME280;40715;55.752;37.884;2022-07-29T05:01:03;99178.69;;;46.45;13.46
54816;BME280;40715;55.752;37.884;2022-07-29T05:03:30;99159.94;;;46.66;12.87
54816;BME280;40715;55.752;37.884;2022-07-29T05:05:57;99178.03;;;47.34;12.68
54816;BME280;40715;55.752;37.884;2022-07-29T05:08:24;99175.31;;;47.74;12.45
54816;BME280;40715;55.752;37.884;2022-07-29T05:10:51;99183.50;;;48.29;11.87
54816;BME280;40715;55.752;37.884;2022-07-29T05:13:18;99181.03;;;48.76;11.56
54816;BME280;40715;55.752;37.884;2022-07-29T05:15:45;99152.97;;;49.05;10.84
54816;BME280;40715;55.752;37.884;2022-07-29T05:18:12;99183.25;;;49.61;10.90
54816;BME280;40715;55.752;37.884;2022-07-29T05:20:39;99175.91;;;49.65;10.25
54816;BME280;40715;55.752;37.884;2022-07-29T05:23:06;99181.22;;;49.99;10.10
54816;BME280;40715;55.752;37.884;2022-07-29T05:25:33;99177.38;;;50.42;9.92
54816;BME280;40715;55.752;37.884;2022-07-29T05:28:10;99187.88;;;50.64;9.55
54816;BME280;40715;55.752;37.884;2022-07-29T05:30:37;99181.13;;;50.93;9.33
54816;BME280;40715;55.752;37.884;2022-07-29T05:33:04;99181.47;;;51.42;9.11
54816;BME280;40715;55.752;37.884;2022-07-29T05:35:32;99181.19;;;51.89;8.91
54816;BME280;40715;55.752;37.884;2022-07-29T05:37:58;99168.97;;;52.16;8.46
54816;BME280;40715;55.752;37.884;2022-07-29T05:40:25;99187.25;;;52.76;8.17
54816;BME280;40715;55.752;37.884;2022-07-29T05:42:52;99179.41;;;53.13;7.66
54816;BME280;40715;55.752;37.884;2022-07-29T05:45:19;99182.16;;;52.96;7.98
54816;BME280;40715;55.752;37.884;2022-07-29T05:47:46;99189.84;;;53.30;7.58
54816;BME280;40715;55.752;37.884;2022-07-29T05:50:13;99191.63;;;53.96;7.63
54816;BME280;40715;55.752;37.884;2022-07-29T05:52:40;99196.22;;;54.75;6.83
54816;BME280;40715;55.752;37.884;2022-07-29T05:55:10;99200.56;;;55.23;6.06
54816;BME280;40715;55.752;37.884;2022-07-29T05:57:37;99188.66;;;55.60;6.36
54816;BME280;40715;55.752;37.884;2022-07-29T06:00:05;99188.84;;;55.76;5.90
54816;BME280;40715;55.752;37.884;2022-07-29T06:02:32;99190.31;;;55.94;5.83
54816;BME280;40715;55.752;37.884;2022-07-29T06:04:59;99193.63;;;56.42;5.38
54816;BME280;40715;55.752;37.884;2022-07-29T06:07:26;99195.31;;;56.80;5.63
54816;BME280;40715;55.752;37.884;2022-07-29T06:09:53;99179.81;;;57.15;5.37
54816;BME280;40715;55.752;37.884;2022-07-29T06:12:20;99183.03;;;57.70;4.91
54816;BME280;40715;55.752;37.884;2022-07-29T06:14:47;99183.97;;;58.18;4.60
54816;BME280;40715;55.752;37.884;2022-07-29T06:17:19;99184.06;;;58.38;4.85
54816;BME280;40715;55.752;37.884;2022-07-29T06:19:46;99180.66;;;58.80;4.67
54816;BME280;40715;55.752;37.884;2022-07-29T06:22:15;99186.41;;;59.19;4.58
54816;BME280;40715;55.752;37.884;2022-07-29T06:24:43;99190.25;;;59.47;4.07
54816;BME280;40715;55.752;37.884;2022-07-29T06:27:11;99182.25;;;59.95;4.57
54816;BME280;40715;55.752;37.884;2022-07-29T06:29:38;99176.66;;;60.45;3.51
54816;BME280;40715;55.752;37.884;2022-07-29T06:32:05;99186.59;;;61.12;3.77
54816;BME280;40715;55.752;37.884;2022-07-29T06:34:32;99183.97;;;61.60;2.84
54816;BME280;40715;55.752;37.884;2022-07-29T06:36:59;99187.63;;;61.95;3.39
54816;BME280;40715;55.752;37.884;2022-07-29T06:39:26;99178.59;;;62.30;3.09
54816;BME280;40715;55.752;37.884;2022-07-29T06:41:54;99180.41;;;62.57;2.87
54816;BME280;40715;55.752;37.884;2022-07-29T06:44:21;99179.47;;;62.97;2.28
54816;BME280;40715;55.752;37.884;2022-07-29T06:46:48;99187.88;;;63.50;2.93
54816;BME280;40715;55.752;37.884;2022-07-29T06:49:18;99179.19;;;63.21;2.28
54816;BME280;40715;55.752;37.884;2022-07-29T06:51:45;99176.69;;;62.01;2.82
54816;BME280;40715;55.752;37.884;2022-07-29T06:54:12;99166.25;;;61.10;3.08
54816;BME280;40715;55.752;37.884;2022-07-29T06:56:39;99166.00;;;58.94;4.03
54816;BME280;40715;55.752;37.884;2022-07-29T06:59:09;99156.53;;;57.21;4.61
54816;BME280;40715;55.752;37.884;2022-07-29T07:01:38;99140.53;;;55.56;5.22
54816;BME280;40715;55.752;37.884;2022-07-29T07:04:05;99146.16;;;53.77;5.89
54816;BME280;40715;55.752;37.884;2022-07-29T07:06:33;99147.63;;;54.30;6.15
54816;BME280;40715;55.752;37.884;2022-07-29T07:09:00;99145.63;;;56.83;4.90
54816;BME280;40715;55.752;37.884;2022-07-29T07:11:27;99157.25;;;59.38;3.68
54816;BME280;40715;55.752;37.884;2022-07-29T07:13:55;99157.59;;;61.67;3.22
54816;BME280;40715;55.752;37.884;2022-07-29T07:16:27;99189.94;;;63.49;2.80
54816;BME280;40715;55.752;37.884;2022-07-29T07:18:54;99205.94;;;64.94;1.62
54816;BME280;40715;55.752;37.884;2022-07-29T07:21:21;99193.69;;;66.35;1.74
54816;BME280;40715;55.752;37.884;2022-07-29T07:23:48;99213.81;;;67.73;0.71
54816;BME280;40715;55.752;37.884;2022-07-29T07:26:16;99198.34;;;68.65;0.26
54816;BME280;40715;55.752;37.884;2022-07-29T07:28:43;99181.66;;;69.37;0.54
54816;BME280;40715;55.752;37.884;2022-07-29T07:31:11;99195.84;;;70.30;0.03
54816;BME280;40715;55.752;37.884;2022-07-29T07:33:38;99183.75;;;70.81;0.21
54816;BME280;40715;55.752;37.884;2022-07-29T07:36:05;99181.59;;;68.13;0.60
54816;BME280;40715;55.752;37.884;2022-07-29T07:38:32;99162.59;;;67.06;0.83
54816;BME280;40715;55.752;37.884;2022-07-29T07:41:00;99157.53;;;66.83;0.58
54816;BME280;40715;55.752;37.884;2022-07-29T07:43:27;99165.00;;;67.11;0.63
54816;BME280;40715;55.752;37.884;2022-07-29T07:45:54;99159.94;;;67.19;0.69
54816;BME280;40715;55.752;37.884;2022-07-29T07:48:22;99165.06;;;66.28;0.94
54816;BME280;40715;55.752;37.884;2022-07-29T07:50:49;99159.28;;;67.08;1.03
54816;BME280;40715;55.752;37.884;2022-07-29T07:53:17;99182.63;;;67.99;0.77
54816;BME280;40715;55.752;37.884;2022-07-29T07:55:44;99184.28;;;68.67;0.04
54816;BME280;40715;55.752;37.884;2022-07-29T07:58:32;99168.59;;;68.01;0.10
54816;BME280;40715;55.752;37.884;2022-07-29T08:00:58;99170.13;;;67.24;0.00
54816;BME280;40715;55.752;37.884;2022-07-29T08:03:25;99156.25;;;65.41;0.27
54816;BME280;40715;55.752;37.884;2022-07-29T08:05:53;99142.56;;;61.70;1.97
54816;BME280;40715;55.752;37.884;2022-07-29T08:08:36;99147.34;;;62.49;1.56
54816;BME280;40715;55.752;37.884;2022-07-29T08:11:09;99152.59;;;63.13;1.49
54816;BME280;40715;55.752;37.884;2022-07-29T08:13:37;99154.44;;;60.54;1.82
54816;BME280;40715;55.752;37.884;2022-07-29T08:16:06;99142.97;;;57.27;3.19
54816;BME280;40715;55.752;37.884;2022-07-29T08:18:41;99144.84;;;58.91;3.09
54816;BME280;40715;55.752;37.884;2022-07-29T08:21:08;99156.97;;;61.85;1.74
54816;BME280;40715;55.752;37.884;2022-07-29T08:23:37;99165.09;;;63.71;1.26
54816;BME280;40715;55.752;37.884;2022-07-29T08:26:17;99137.00;;;60.06;2.50
54816;BME280;40715;55.752;37.884;2022-07-29T08:28:45;99136.78;;;56.10;3.95
54816;BME280;40715;55.752;37.884;2022-07-29T08:31:13;99141.81;;;58.17;3.63
54816;BME280;40715;55.752;37.884;2022-07-29T08:33:41;99153.50;;;61.31;2.47
54816;BME280;40715;55.752;37.884;2022-07-29T08:36:10;99164.72;;;64.02;0.87
54816;BME280;40715;55.752;37.884;2022-07-29T08:38:40;99176.41;;;65.93;0.15
54816;BME280;40715;55.752;37.884;2022-07-29T08:41:40;99177.31;;;67.70;0.00
54816;BME280;40715;55.752;37.884;2022-07-29T08:44:11;99173.03;;;66.89;0.23
54816;BME280;40715;55.752;37.884;2022-07-29T08:46:38;99150.41;;;61.13;1.39
54816;BME280;40715;55.752;37.884;2022-07-29T08:49:08;99127.84;;;55.08;3.21
54816;BME280;40715;55.752;37.884;2022-07-29T08:51:36;99117.59;;;50.47;5.52
54816;BME280;40715;55.752;37.884;2022-07-29T08:54:17;99123.78;;;49.50;6.74
54816;BME280;40715;55.752;37.884;2022-07-29T08:56:48;99124.66;;;52.53;5.35
54816;BME280;40715;55.752;37.884;2022-07-29T08:59:19;99138.16;;;55.58;4.65
54816;BME280;40715;55.752;37.884;2022-07-29T09:01:48;99147.91;;;59.81;2.78
54816;BME280;40715;55.752;37.884;2022-07-29T09:04:17;99155.28;;;62.77;1.46
54816;BME280;40715;55.752;37.884;2022-07-29T09:06:48;99167.94;;;64.69;0.92
54816;BME280;40715;55.752;37.884;2022-07-29T09:09:19;99174.75;;;66.45;0.32
54816;BME280;40715;55.752;37.884;2022-07-29T09:11:46;99176.56;;;67.66;0.00
54816;BME280;40715;55.752;37.884;2022-07-29T09:14:14;99182.69;;;67.95;0.00
54816;BME280;40715;55.752;37.884;2022-07-29T09:16:52;99161.88;;;64.05;0.42
54816;BME280;40715;55.752;37.884;2022-07-29T09:19:24;99152.75;;;63.45;0.87
54816;BME280;40715;55.752;37.884;2022-07-29T09:21:53;99163.88;;;65.69;0.13
54816;BME280;40715;55.752;37.884;2022-07-29T09:27:08;99179.44;;;69.04;0.00
54816;BME280;40715;55.752;37.884;2022-07-29T09:29:35;99187.41;;;69.53;0.00
54816;BME280;40715;55.752;37.884;2022-07-29T09:32:09;99184.59;;;70.19;0.00
54816;BME280;40715;55.752;37.884;2022-07-29T09:34:37;99182.78;;;71.01;0.00
54816;BME280;40715;55.752;37.884;2022-07-29T09:37:04;99183.66;;;70.39;0.00
54816;BME280;40715;55.752;37.884;2022-07-29T09:39:32;99185.00;;;70.51;0.00
54816;BME280;40715;55.752;37.884;2022-07-29T09:42:03;99179.91;;;70.84;0.00
54816;BME280;40715;55.752;37.884;2022-07-29T09:44:47;99194.63;;;71.19;0.00
54816;BME280;40715;55.752;37.884;2022-07-29T09:47:18;99186.81;;;70.45;0.00
54816;BME280;40715;55.752;37.884;2022-07-29T09:49:56;99164.41;;;66.93;0.00
54816;BME280;40715;55.752;37.884;2022-07-29T09:52:28;99144.19;;;61.03;1.50
54816;BME280;40715;55.752;37.884;2022-07-29T09:55:09;99135.94;;;55.64;3.31
54816;BME280;40715;55.752;37.884;2022-07-29T09:57:44;99135.88;;;52.04;4.48
54816;BME280;40715;55.752;37.884;2022-07-29T10:02:41;99122.22;;;48.38;7.19
54816;BME280;40715;55.752;37.884;2022-07-29T10:05:22;99125.75;;;46.45;8.16
54816;BME280;40715;55.752;37.884;2022-07-29T10:07:57;99122.06;;;45.01;8.81
54816;BME280;40715;55.752;37.884;2022-07-29T10:10:28;99130.44;;;43.67;9.66
54816;BME280;40715;55.752;37.884;2022-07-29T10:13:02;99114.84;;;42.23;10.16
54816;BME280;40715;55.752;37.884;2022-07-29T10:15:36;99120.91;;;40.82;11.26
54816;BME280;40715;55.752;37.884;2022-07-29T10:18:06;99129.78;;;39.66;12.04
54816;BME280;40715;55.752;37.884;2022-07-29T10:20:34;99126.38;;;38.54;12.50
54816;BME280;40715;55.752;37.884;2022-07-29T10:23:01;99120.50;;;37.50;13.87
54816;BME280;40715;55.752;37.884;2022-07-29T10:25:28;99123.38;;;36.77;14.35
54816;BME280;40715;55.752;37.884;2022-07-29T10:27:55;99122.28;;;36.13;14.68
54816;BME280;40715;55.752;37.884;2022-07-29T10:30:26;99120.75;;;35.43;15.62
54816;BME280;40715;55.752;37.884;2022-07-29T10:35:52;99118.94;;;34.26;16.30
54816;BME280;40715;55.752;37.884;2022-07-29T10:44:04;99116.66;;;33.51;17.76
54816;BME280;40715;55.752;37.884;2022-07-29T10:46:36;99121.25;;;33.29;18.21
54816;BME280;40715;55.752;37.884;2022-07-29T10:49:05;99124.56;;;33.09;18.56
54816;BME280;40715;55.752;37.884;2022-07-29T10:52:03;99111.34;;;32.91;18.68
54816;BME280;40715;55.752;37.884;2022-07-29T10:57:22;99121.44;;;32.46;18.97
54816;BME280;40715;55.752;37.884;2022-07-29T11:02:43;99133.66;;;32.35;19.12
54816;BME280;40715;55.752;37.884;2022-07-29T11:05:13;99143.91;;;32.33;19.56
54816;BME280;40715;55.752;37.884;2022-07-29T11:10:48;99136.00;;;32.53;19.36
54816;BME280;40715;55.752;37.884;2022-07-29T11:13:51;99129.13;;;32.42;19.38
54816;BME280;40715;55.752;37.884;2022-07-29T11:16:20;99134.97;;;32.24;19.71
54816;BME280;40715;55.752;37.884;2022-07-29T11:21:59;99129.84;;;32.06;19.98
54816;BME280;40715;55.752;37.884;2022-07-29T11:24:28;99130.72;;;32.22;19.93
54816;BME280;40715;55.752;37.884;2022-07-29T11:27:19;99122.25;;;32.16;19.94
54816;BME280;40715;55.752;37.884;2022-07-29T11:29:54;99129.72;;;31.99;20.44
54816;BME280;40715;55.752;37.884;2022-07-29T11:32:24;99131.41;;;31.86;20.22
54816;BME280;40715;55.752;37.884;2022-07-29T11:35:17;99131.53;;;31.69;20.45
54816;BME280;40715;55.752;37.884;2022-07-29T11:43:58;99135.53;;;31.81;20.20
54816;BME280;40715;55.752;37.884;2022-07-29T11:46:50;99141.16;;;31.80;19.95
54816;BME280;40715;55.752;37.884;2022-07-29T11:49:24;99134.50;;;31.82;20.23
54816;BME280;40715;55.752;37.884;2022-07-29T11:51:59;99143.38;;;31.76;20.27
54816;BME280;40715;55.752;37.884;2022-07-29T11:54:33;99139.31;;;31.72;20.18
54816;BME280;40715;55.752;37.884;2022-07-29T11:57:06;99144.72;;;31.80;20.06
54816;BME280;40715;55.752;37.884;2022-07-29T11:59:41;99130.97;;;31.74;20.03
54816;BME280;40715;55.752;37.884;2022-07-29T12:02:09;99147.84;;;31.92;19.98
54816;BME280;40715;55.752;37.884;2022-07-29T12:04:56;99147.00;;;32.07;20.04
54816;BME280;40715;55.752;37.884;2022-07-29T12:07:36;99144.16;;;32.23;19.96
54816;BME280;40715;55.752;37.884;2022-07-29T12:10:30;99147.94;;;32.37;19.71
54816;BME280;40715;55.752;37.884;2022-07-29T12:13:05;99135.63;;;32.41;19.41
54816;BME280;40715;55.752;37.884;2022-07-29T12:15:34;99134.69;;;32.49;19.75
54816;BME280;40715;55.752;37.884;2022-07-29T12:18:17;99138.53;;;32.55;19.72
54816;BME280;40715;55.752;37.884;2022-07-29T12:20:46;99142.19;;;32.62;19.42
54816;BME280;40715;55.752;37.884;2022-07-29T12:23:14;99144.19;;;32.68;19.63
54816;BME280;40715;55.752;37.884;2022-07-29T12:25:43;99135.84;;;32.69;19.47
54816;BME280;40715;55.752;37.884;2022-07-29T12:28:15;99131.88;;;32.72;19.76
54816;BME280;40715;55.752;37.884;2022-07-29T12:30:47;99140.06;;;32.72;19.81
54816;BME280;40715;55.752;37.884;2022-07-29T12:34:04;99133.47;;;32.51;20.02
54816;BME280;40715;55.752;37.884;2022-07-29T12:36:30;99137.31;;;32.27;20.15
54816;BME280;40715;55.752;37.884;2022-07-29T12:39:05;99134.16;;;32.00;20.76
54816;BME280;40715;55.752;37.884;2022-07-29T12:41:35;99124.81;;;31.80;20.54
54816;BME280;40715;55.752;37.884;2022-07-29T12:44:02;99142.41;;;31.46;20.95
54816;BME280;40715;55.752;37.884;2022-07-29T12:46:29;99136.03;;;31.07;21.30
54816;BME280;40715;55.752;37.884;2022-07-29T12:48:56;99137.84;;;30.75;21.57
54816;BME280;40715;55.752;37.884;2022-07-29T12:54:04;99125.59;;;30.71;22.12
54816;BME280;40715;55.752;37.884;2022-07-29T12:56:31;99131.50;;;30.91;21.90
54816;BME280;40715;55.752;37.884;2022-07-29T12:59:26;99130.41;;;31.32;21.63
54816;BME280;40715;55.752;37.884;2022-07-29T13:01:53;99138.75;;;31.62;21.55
54816;BME280;40715;55.752;37.884;2022-07-29T13:04:31;99133.38;;;31.92;20.95
54816;BME280;40715;55.752;37.884;2022-07-29T13:07:06;99130.13;;;32.11;20.99
54816;BME280;40715;55.752;37.884;2022-07-29T13:09:42;99132.69;;;32.28;20.94
54816;BME280;40715;55.752;37.884;2022-07-29T13:12:12;99144.56;;;32.20;21.06
54816;BME280;40715;55.752;37.884;2022-07-29T13:14:44;99133.56;;;32.05;21.16
54816;BME280;40715;55.752;37.884;2022-07-29T13:17:22;99133.00;;;31.95;21.37
54816;BME280;40715;55.752;37.884;2022-07-29T13:20:04;99133.56;;;31.90;21.15
54816;BME280;40715;55.752;37.884;2022-07-29T13:22:32;99128.13;;;31.90;21.22
54816;BME280;40715;55.752;37.884;2022-07-29T13:25:02;99130.66;;;31.92;20.97
54816;BME280;40715;55.752;37.884;2022-07-29T13:27:32;99137.28;;;31.74;21.21
54816;BME280;40715;55.752;37.884;2022-07-29T13:30:02;99132.66;;;31.52;21.37
54816;BME280;40715;55.752;37.884;2022-07-29T13:32:31;99124.84;;;31.25;21.62
54816;BME280;40715;55.752;37.884;2022-07-29T13:35:00;99118.88;;;30.98;21.83
54816;BME280;40715;55.752;37.884;2022-07-29T13:37:31;99130.56;;;30.68;22.01
54816;BME280;40715;55.752;37.884;2022-07-29T13:40:02;99116.88;;;30.36;22.31
54816;BME280;40715;55.752;37.884;2022-07-29T13:42:31;99133.56;;;30.08;22.48
54816;BME280;40715;55.752;37.884;2022-07-29T13:44:59;99127.50;;;29.82;22.49
54816;BME280;40715;55.752;37.884;2022-07-29T13:47:26;99139.03;;;29.59;23.02
54816;BME280;40715;55.752;37.884;2022-07-29T13:49:59;99133.25;;;29.37;23.33
54816;BME280;40715;55.752;37.884;2022-07-29T13:52:26;99129.81;;;29.27;23.51
54816;BME280;40715;55.752;37.884;2022-07-29T13:54:53;99121.19;;;29.23;23.18
54816;BME280;40715;55.752;37.884;2022-07-29T13:57:19;99131.53;;;29.36;23.42
54816;BME280;40715;55.752;37.884;2022-07-29T13:59:47;99132.25;;;29.55;23.54
54816;BME280;40715;55.752;37.884;2022-07-29T14:02:19;99125.78;;;29.81;23.59